createdAt,value
2022-10-20T00:02:26.294Z,18.45
2022-10-20T00:05:11.366Z,17.85
2022-10-20T00:07:57.013Z,18.17
2022-10-20T00:10:43.486Z,18.67
2022-10-20T00:13:29.098Z,17.73
2022-10-20T00:16:14.982Z,16.10
2022-10-20T00:19:00.713Z,17.35
2022-10-20T00:21:46.243Z,17.15
2022-10-20T00:24:31.708Z,16.95
2022-10-20T00:27:17.166Z,17.60
2022-10-20T00:30:03.381Z,16.55
2022-10-20T00:32:48.744Z,16.83
2022-10-20T00:35:39.005Z,17.25
2022-10-20T00:38:24.338Z,17.48
2022-10-20T00:41:16.077Z,16.98
2022-10-20T00:44:22.735Z,20.38
2022-10-20T00:47:38.970Z,18.02
2022-10-20T00:50:31.574Z,16.38
2022-10-20T00:53:22.794Z,15.93
2022-10-20T00:56:08.384Z,16.50
2022-10-20T00:58:54.366Z,16.75
2022-10-20T01:01:41.492Z,16.23
2022-10-20T01:04:29.776Z,17.10
2022-10-20T01:07:15.375Z,18.00
2022-10-20T01:10:02.587Z,16.90
2022-10-20T01:13:13.910Z,17.40
2022-10-20T01:16:14.251Z,19.05
2022-10-20T01:19:16.879Z,21.25
2022-10-20T01:22:42.816Z,18.75
2022-10-20T01:26:02.733Z,18.25
2022-10-20T01:29:06.359Z,18.40
2022-10-20T01:32:20.374Z,21.52
2022-10-20T01:35:10.304Z,23.42
2022-10-20T01:38:18.689Z,22.67
2022-10-20T01:41:35.917Z,21.10
2022-10-20T01:44:25.015Z,19.65
2022-10-20T01:47:12.138Z,20.88
2022-10-20T01:49:58.300Z,19.67
2022-10-20T01:52:43.590Z,20.75
2022-10-20T01:55:29.157Z,19.27
2022-10-20T01:58:31.712Z,20.80
2022-10-20T02:01:37.491Z,20.50
2022-10-20T02:04:35.215Z,20.08
2022-10-20T02:07:29.328Z,20.60
2022-10-20T02:10:25.102Z,21.25
2022-10-20T02:13:12.617Z,20.83
2022-10-20T02:16:02.219Z,19.88
2022-10-20T02:18:48.653Z,19.73
2022-10-20T02:21:33.990Z,25.55
2022-10-20T02:24:23.225Z,20.27
2022-10-20T02:27:18.596Z,21.17
2022-10-20T02:30:10.582Z,18.52
2022-10-20T02:32:56.244Z,19.52
2022-10-20T02:35:50.812Z,21.77
2022-10-20T02:38:36.272Z,22.35
2022-10-20T02:41:22.347Z,19.63
2022-10-20T02:44:08.123Z,19.08
2022-10-20T02:46:53.415Z,20.33
2022-10-20T02:49:38.951Z,17.90
2022-10-20T02:52:24.301Z,18.05
2022-10-20T02:55:09.736Z,20.13
2022-10-20T02:57:55.107Z,18.85
2022-10-20T03:00:40.515Z,18.30
2022-10-20T03:03:25.933Z,18.58
2022-10-20T03:06:15.823Z,17.05
2022-10-20T03:09:01.210Z,16.55
2022-10-20T03:11:46.836Z,17.38
2022-10-20T03:14:32.149Z,17.95
2022-10-20T03:17:17.489Z,18.75
2022-10-20T03:20:04.197Z,17.67
2022-10-20T03:22:49.447Z,17.77
2022-10-20T03:25:35.078Z,18.98
2022-10-20T03:28:20.660Z,16.20
2022-10-20T03:31:07.292Z,18.65
2022-10-20T03:33:52.925Z,16.80
2022-10-20T03:36:38.441Z,17.15
2022-10-20T03:39:24.022Z,17.63
2022-10-20T03:42:09.471Z,17.88
2022-10-20T03:44:55.054Z,17.00
2022-10-20T03:47:40.699Z,17.80
2022-10-20T03:50:26.311Z,19.65
2022-10-20T03:53:14.912Z,18.13
2022-10-20T03:56:04.907Z,18.35
2022-10-20T03:58:50.240Z,18.98
2022-10-20T04:01:36.065Z,16.75
2022-10-20T04:04:21.690Z,17.77
2022-10-20T04:07:07.219Z,17.23
2022-10-20T04:09:52.958Z,16.85
2022-10-20T04:12:38.863Z,16.48
2022-10-20T04:15:24.521Z,15.48
2022-10-20T04:18:10.214Z,18.45
2022-10-20T04:20:55.692Z,18.77
2022-10-20T04:23:41.057Z,16.13
2022-10-20T04:26:26.666Z,16.15
2022-10-20T04:29:12.137Z,15.52
2022-10-20T04:31:57.856Z,16.92
2022-10-20T04:34:42.979Z,19.83
2022-10-20T04:37:28.799Z,14.63
2022-10-20T04:40:13.976Z,13.63
2022-10-20T04:43:01.052Z,13.90
2022-10-20T04:45:46.539Z,13.95
2022-10-20T04:48:32.071Z,15.35
2022-10-20T04:51:18.095Z,16.30
2022-10-20T04:56:54.350Z,13.52
2022-10-20T04:59:39.614Z,12.30
2022-10-20T05:02:24.870Z,15.52
2022-10-20T05:05:10.334Z,15.05
2022-10-20T05:07:55.835Z,15.02
2022-10-20T05:10:41.389Z,14.15
2022-10-20T05:13:27.293Z,12.80
2022-10-20T05:16:13.272Z,12.93
2022-10-20T05:18:58.635Z,13.73
2022-10-20T05:21:44.113Z,15.07
2022-10-20T05:24:30.191Z,15.38
2022-10-20T05:27:15.993Z,17.88
2022-10-20T05:30:03.068Z,15.80
2022-10-20T05:32:48.417Z,16.10
2022-10-20T05:35:34.080Z,16.02
2022-10-20T05:38:19.793Z,14.52
2022-10-20T05:41:13.603Z,14.15
2022-10-20T05:44:00.871Z,13.60
2022-10-20T05:46:46.430Z,16.33
2022-10-20T05:49:32.028Z,14.30
2022-10-20T05:52:17.547Z,16.63
2022-10-20T05:55:04.536Z,15.13
2022-10-20T05:57:50.721Z,17.75
2022-10-20T06:00:41.812Z,17.67
2022-10-20T06:03:28.296Z,17.40
2022-10-20T06:06:13.677Z,16.73
2022-10-20T06:09:00.461Z,17.85
2022-10-20T06:11:46.637Z,18.38
2022-10-20T06:14:32.667Z,16.63
2022-10-20T06:17:18.298Z,16.95
2022-10-20T06:20:04.042Z,16.15
2022-10-20T06:22:49.541Z,15.18
2022-10-20T06:25:35.062Z,13.57
2022-10-20T06:28:20.649Z,13.98
2022-10-20T06:31:17.965Z,13.05
2022-10-20T06:34:05.705Z,12.30
2022-10-20T06:36:52.066Z,12.65
2022-10-20T06:39:37.387Z,13.45
2022-10-20T06:42:22.748Z,14.35
2022-10-20T06:45:08.865Z,15.63
2022-10-20T06:47:54.554Z,15.57
2022-10-20T06:50:40.192Z,15.93
2022-10-20T06:53:26.951Z,16.63
2022-10-20T06:56:20.899Z,16.15
2022-10-20T06:59:06.868Z,16.73
2022-10-20T07:01:53.015Z,17.95
2022-10-20T07:04:38.338Z,17.20
2022-10-20T07:07:23.871Z,17.23
2022-10-20T07:10:09.732Z,18.70
2022-10-20T07:12:55.548Z,17.23
2022-10-20T07:15:41.075Z,17.42
2022-10-20T07:18:28.341Z,19.73
2022-10-20T07:21:16.354Z,16.38
2022-10-20T07:24:01.938Z,20.88
2022-10-20T07:26:47.678Z,18.88
2022-10-20T07:32:24.096Z,18.48
2022-10-20T07:35:09.678Z,19.00
2022-10-20T07:37:55.292Z,19.83
2022-10-20T07:40:40.842Z,17.27
2022-10-20T07:43:26.513Z,18.40
2022-10-20T07:46:13.571Z,18.90
2022-10-20T07:49:11.364Z,17.75
2022-10-20T07:52:04.557Z,17.13
2022-10-20T07:54:50.284Z,17.30
2022-10-20T07:57:35.757Z,17.23
2022-10-20T08:00:21.442Z,17.42
2022-10-20T08:03:06.794Z,16.42
2022-10-20T08:05:52.278Z,18.13
2022-10-20T08:08:38.324Z,18.88
2022-10-20T08:11:24.037Z,17.92
2022-10-20T08:14:09.690Z,17.23
2022-10-20T08:16:59.469Z,17.02
2022-10-20T08:19:51.685Z,17.13
2022-10-20T08:22:37.537Z,17.65
2022-10-20T08:25:22.977Z,19.13
2022-10-20T08:28:09.074Z,18.52
2022-10-20T08:30:54.348Z,16.70
2022-10-20T08:33:41.019Z,17.73
2022-10-20T08:36:28.261Z,17.38
2022-10-20T08:39:13.470Z,17.05
2022-10-20T08:42:09.046Z,16.23
2022-10-20T08:44:59.997Z,17.40
2022-10-20T08:47:47.276Z,17.33
2022-10-20T08:50:33.959Z,16.88
2022-10-20T08:53:22.404Z,16.00
2022-10-20T08:56:14.209Z,17.60
2022-10-20T08:58:59.602Z,16.05
2022-10-20T09:01:44.997Z,17.40
2022-10-20T09:07:36.800Z,16.05
2022-10-20T09:10:31.518Z,17.80
2022-10-20T09:13:23.991Z,16.90
2022-10-20T09:16:33.445Z,17.25
2022-10-20T09:19:28.498Z,17.10
2022-10-20T09:22:14.706Z,18.67
2022-10-20T09:25:00.440Z,16.15
2022-10-20T09:27:46.473Z,16.60
2022-10-20T09:30:36.059Z,16.42
2022-10-20T09:33:25.329Z,18.20
2022-10-20T09:36:16.480Z,16.13
2022-10-20T09:39:02.278Z,17.83
2022-10-20T09:41:49.699Z,15.45
2022-10-20T09:44:47.857Z,15.82
2022-10-20T09:47:34.813Z,18.58
2022-10-20T09:50:34.838Z,16.92
2022-10-20T09:53:25.548Z,17.00
2022-10-20T09:56:11.354Z,16.10
2022-10-20T09:58:59.167Z,16.50
2022-10-20T10:02:00.749Z,17.60
2022-10-20T10:04:49.001Z,17.30
2022-10-20T10:07:34.533Z,17.77
2022-10-20T10:10:19.851Z,16.88
2022-10-20T10:16:10.296Z,16.65
2022-10-20T10:19:01.756Z,16.23
2022-10-20T10:21:59.834Z,16.65
2022-10-20T10:24:47.223Z,15.13
2022-10-20T10:27:37.350Z,16.13
2022-10-20T10:30:28.741Z,15.70
2022-10-20T10:33:26.092Z,14.77
2022-10-20T10:36:38.174Z,15.55
2022-10-20T10:39:23.663Z,14.77
2022-10-20T10:42:11.643Z,15.18
2022-10-20T10:45:15.338Z,14.20
2022-10-20T10:48:15.229Z,14.30
2022-10-20T10:51:07.370Z,14.20
2022-10-20T10:53:58.949Z,13.73
2022-10-20T10:56:59.035Z,13.70
2022-10-20T10:59:45.924Z,14.48
2022-10-20T11:03:21.528Z,14.77
2022-10-20T11:06:21.401Z,16.20
2022-10-20T11:09:41.121Z,14.80
2022-10-20T11:13:04.775Z,14.88
2022-10-20T11:16:05.491Z,14.60
2022-10-20T11:19:10.981Z,14.93
2022-10-20T11:22:14.280Z,13.80
2022-10-20T11:25:13.159Z,13.93
2022-10-20T11:27:59.552Z,13.25
2022-10-20T11:30:45.118Z,12.70
2022-10-20T11:33:43.767Z,13.45
2022-10-20T11:36:36.256Z,13.77
2022-10-20T11:39:36.199Z,13.77
2022-10-20T11:42:41.605Z,13.02
2022-10-20T11:45:51.182Z,13.65
2022-10-20T11:48:45.759Z,13.38
2022-10-20T11:54:43.918Z,12.60
2022-10-20T11:57:44.589Z,12.80
2022-10-20T12:00:48.655Z,12.98
2022-10-20T12:03:36.868Z,13.23
2022-10-20T12:06:31.595Z,12.30
2022-10-20T12:12:33.512Z,12.93
2022-10-20T12:15:22.907Z,12.35
2022-10-20T12:18:36.614Z,12.23
2022-10-20T12:21:55.763Z,13.10
2022-10-20T12:25:01.191Z,12.80
2022-10-20T12:27:46.803Z,11.38
2022-10-20T12:30:38.327Z,12.60
2022-10-20T12:33:54.547Z,12.70
2022-10-20T12:36:39.923Z,12.43
2022-10-20T12:39:29.642Z,11.25
2022-10-20T12:42:28.263Z,10.32
2022-10-20T12:45:19.374Z,10.20
2022-10-20T12:48:07.885Z,10.80
2022-10-20T12:50:53.788Z,11.10
2022-10-20T12:53:40.667Z,10.55
2022-10-20T12:56:32.229Z,11.57
2022-10-20T12:59:30.025Z,10.30
2022-10-20T13:02:18.716Z,10.77
2022-10-20T13:05:06.971Z,10.15
2022-10-20T13:07:52.656Z,10.60
2022-10-20T13:10:38.372Z,10.77
2022-10-20T13:13:23.818Z,11.38
2022-10-20T13:16:18.849Z,10.45
2022-10-20T13:21:52.325Z,10.85
2022-10-20T13:24:42.709Z,11.30
2022-10-20T13:27:30.381Z,11.07
2022-10-20T13:30:21.599Z,10.38
2022-10-20T13:33:34.512Z,10.05
2022-10-20T13:36:49.008Z,10.05
2022-10-20T13:40:03.658Z,9.35
2022-10-20T13:43:00.081Z,10.18
2022-10-20T13:45:54.871Z,9.82
2022-10-20T13:48:43.209Z,11.43
2022-10-20T13:51:40.933Z,11.05
2022-10-20T13:54:32.805Z,10.57
2022-10-20T13:57:33.622Z,10.68
2022-10-20T14:00:30.789Z,9.73
2022-10-20T14:03:18.446Z,10.23
2022-10-20T14:06:04.121Z,8.98
2022-10-20T14:11:40.757Z,9.90
2022-10-20T14:14:28.874Z,9.75
2022-10-20T14:17:23.102Z,9.20
2022-10-20T14:20:19.518Z,9.93
2022-10-20T14:23:06.409Z,8.70
2022-10-20T14:25:54.083Z,8.70
2022-10-20T14:28:40.261Z,9.13
2022-10-20T14:31:26.061Z,8.40
2022-10-20T14:34:24.831Z,9.07
2022-10-20T14:37:30.268Z,10.05
2022-10-20T14:40:22.840Z,9.65
2022-10-20T14:43:39.612Z,7.95
2022-10-20T14:46:34.303Z,8.32
2022-10-20T14:49:51.556Z,7.90
2022-10-20T14:52:38.798Z,8.80
2022-10-20T14:55:33.530Z,8.90
2022-10-20T14:58:34.222Z,8.73
2022-10-20T15:01:29.954Z,8.07
2022-10-20T15:04:23.453Z,7.72
2022-10-20T15:07:11.927Z,7.88
2022-10-20T15:10:09.802Z,7.57
2022-10-20T15:12:55.826Z,7.72
2022-10-20T15:15:41.566Z,8.27
2022-10-20T15:18:29.156Z,7.80
2022-10-20T15:21:14.501Z,8.68
2022-10-20T15:24:00.201Z,8.73
2022-10-20T15:26:45.591Z,9.57
2022-10-20T15:29:31.996Z,9.77
2022-10-20T15:32:18.716Z,10.15
2022-10-20T15:35:11.464Z,10.60
2022-10-20T15:37:57.072Z,10.48
2022-10-20T15:40:43.159Z,9.07
2022-10-20T15:43:28.396Z,9.75
2022-10-20T15:46:15.842Z,9.35
2022-10-20T15:49:01.511Z,8.77
2022-10-20T15:51:48.316Z,9.60
2022-10-20T15:54:33.839Z,9.70
2022-10-20T15:57:19.458Z,10.52
2022-10-20T16:00:05.282Z,10.73
2022-10-20T16:02:51.405Z,10.48
2022-10-20T16:05:36.686Z,9.68
2022-10-20T16:08:22.332Z,11.05
2022-10-20T16:11:08.497Z,10.20
2022-10-20T16:13:53.996Z,11.23
2022-10-20T16:16:39.364Z,9.65
2022-10-20T16:19:24.965Z,10.18
2022-10-20T16:22:10.486Z,9.05
2022-10-20T16:24:56.271Z,10.00
2022-10-20T16:27:41.832Z,8.68
2022-10-20T16:30:27.088Z,10.30
2022-10-20T16:33:12.680Z,10.38
2022-10-20T16:35:58.208Z,9.90
2022-10-20T16:38:44.102Z,10.88
2022-10-20T16:41:29.508Z,10.52
2022-10-20T16:44:15.358Z,9.77
2022-10-20T16:47:00.629Z,11.15
2022-10-20T16:49:46.086Z,11.27
2022-10-20T16:52:32.828Z,10.75
2022-10-20T16:55:18.001Z,10.02
2022-10-20T16:58:03.706Z,10.43
2022-10-20T17:01:10.887Z,10.13
2022-10-20T17:03:56.374Z,10.88
2022-10-20T17:06:42.094Z,10.18
2022-10-20T17:09:27.406Z,10.98
2022-10-20T17:12:12.662Z,11.70
2022-10-20T17:14:58.311Z,10.45
2022-10-20T17:17:43.580Z,10.13
2022-10-20T17:20:29.389Z,10.25
2022-10-20T17:23:14.645Z,11.25
2022-10-20T17:26:02.269Z,10.38
2022-10-20T17:28:49.095Z,10.40
2022-10-20T17:31:34.549Z,11.30
2022-10-20T17:34:20.342Z,10.40
2022-10-20T17:37:05.901Z,10.43
2022-10-20T17:39:51.478Z,10.48
2022-10-20T17:42:37.304Z,11.27
2022-10-20T17:45:22.951Z,10.68
2022-10-20T17:48:10.121Z,11.60
2022-10-20T17:51:07.498Z,11.18
2022-10-20T17:53:56.074Z,10.13
2022-10-20T17:56:41.410Z,11.52
2022-10-20T17:59:27.018Z,10.55
2022-10-20T18:02:12.342Z,11.32
2022-10-20T18:04:57.984Z,10.63
2022-10-20T18:07:43.742Z,12.90
2022-10-20T18:10:32.089Z,12.48
2022-10-20T18:13:17.735Z,10.25
2022-10-20T18:16:08.521Z,12.00
2022-10-20T18:21:44.566Z,13.45
2022-10-20T18:24:29.947Z,13.02
2022-10-20T18:27:15.231Z,11.90
2022-10-20T18:30:00.586Z,12.80
2022-10-20T18:32:46.242Z,12.40
2022-10-20T18:35:31.831Z,11.55
2022-10-20T18:38:17.606Z,11.23
2022-10-20T18:41:23.699Z,10.60
2022-10-20T18:44:15.245Z,12.20
2022-10-20T18:47:00.472Z,10.70
2022-10-20T18:49:45.841Z,13.75
2022-10-20T18:52:31.804Z,12.98
2022-10-20T18:55:17.385Z,13.15
2022-10-20T18:58:02.826Z,11.95
2022-10-20T19:01:00.546Z,12.05
2022-10-20T19:03:48.701Z,11.13
2022-10-20T19:06:37.069Z,11.65
2022-10-20T19:09:22.679Z,13.75
2022-10-20T19:12:10.442Z,11.48
2022-10-20T19:14:56.302Z,12.00
2022-10-20T19:17:41.801Z,11.07
2022-10-20T19:20:30.286Z,11.68
2022-10-20T19:23:15.762Z,11.20
2022-10-20T19:26:11.891Z,11.70
2022-10-20T19:29:00.725Z,12.90
2022-10-20T19:31:52.617Z,11.88
2022-10-20T19:34:40.000Z,14.18
2022-10-20T19:37:25.501Z,13.10
2022-10-20T19:40:12.285Z,11.48
2022-10-20T19:42:57.841Z,12.88
2022-10-20T19:45:47.682Z,12.13
2022-10-20T19:48:35.855Z,11.50
2022-10-20T19:51:21.891Z,11.20
2022-10-20T19:54:07.623Z,11.90
2022-10-20T19:56:52.955Z,12.43
2022-10-20T19:59:38.586Z,14.15
2022-10-20T20:02:23.951Z,14.60
2022-10-20T20:05:09.591Z,11.82
2022-10-20T20:07:55.100Z,11.75
2022-10-20T20:10:40.929Z,12.32
2022-10-20T20:13:26.420Z,12.38
2022-10-20T20:16:11.834Z,14.50
2022-10-20T20:18:57.774Z,14.27
2022-10-20T20:21:43.437Z,14.52
2022-10-20T20:24:28.776Z,13.30
2022-10-20T20:27:14.631Z,12.13
2022-10-20T20:30:03.022Z,12.32
2022-10-20T20:32:50.743Z,11.77
2022-10-20T20:35:37.111Z,11.82
2022-10-20T20:38:22.669Z,11.57
2022-10-20T20:41:13.759Z,12.63
2022-10-20T20:44:02.924Z,15.80
2022-10-20T20:46:50.776Z,15.50
2022-10-20T20:49:36.459Z,14.10
2022-10-20T20:52:21.990Z,13.45
2022-10-20T20:55:07.803Z,14.32
2022-10-20T20:57:53.439Z,13.30
2022-10-20T21:00:38.659Z,13.00
2022-10-20T21:03:24.279Z,12.02
2022-10-20T21:06:17.422Z,11.93
2022-10-20T21:09:03.815Z,11.43
2022-10-20T21:11:49.376Z,11.90
2022-10-20T21:14:34.723Z,12.95
2022-10-20T21:17:20.628Z,12.20
2022-10-20T21:20:06.616Z,11.65
2022-10-20T21:22:52.224Z,11.45
2022-10-20T21:25:37.453Z,11.77
2022-10-20T21:28:23.093Z,13.30
2022-10-20T21:31:11.422Z,10.75
2022-10-20T21:33:58.745Z,11.77
2022-10-20T21:36:44.376Z,12.52
2022-10-20T21:42:16.560Z,10.90
2022-10-20T21:45:02.118Z,11.13
2022-10-20T21:47:47.600Z,11.35
2022-10-20T21:50:36.699Z,10.70
2022-10-20T21:53:22.239Z,13.57
2022-10-20T21:56:08.538Z,10.57
2022-10-20T21:58:54.375Z,12.27
2022-10-20T22:01:39.759Z,11.23
2022-10-20T22:04:27.186Z,11.27
2022-10-20T22:07:13.304Z,10.10
2022-10-20T22:09:58.605Z,10.38
2022-10-20T22:12:44.124Z,12.02
2022-10-20T22:15:29.820Z,10.68
2022-10-20T22:18:15.479Z,12.23
2022-10-20T22:21:09.748Z,13.10
2022-10-20T22:23:59.686Z,12.20
2022-10-20T22:26:45.278Z,10.73
2022-10-20T22:29:30.816Z,13.13
2022-10-20T22:32:16.284Z,13.68
2022-10-20T22:35:01.865Z,14.05
2022-10-20T22:37:47.468Z,14.57
2022-10-20T22:40:33.017Z,15.77
2022-10-20T22:43:18.649Z,15.02
2022-10-20T22:46:04.301Z,12.63
2022-10-20T22:48:49.577Z,10.88
2022-10-20T22:51:35.234Z,10.95
2022-10-20T22:54:20.814Z,10.98
2022-10-20T22:57:06.387Z,11.35
2022-10-20T22:59:52.220Z,11.30
2022-10-20T23:02:37.690Z,9.73
2022-10-20T23:05:23.710Z,10.52
2022-10-20T23:08:09.305Z,8.82
2022-10-20T23:10:59.030Z,10.60
2022-10-20T23:13:45.046Z,11.02
2022-10-20T23:16:30.315Z,13.90
2022-10-20T23:19:15.900Z,12.80
2022-10-20T23:22:01.473Z,13.35
2022-10-20T23:24:47.947Z,14.93
2022-10-20T23:27:35.073Z,15.77
2022-10-20T23:30:20.597Z,14.25
2022-10-20T23:33:06.150Z,14.02
2022-10-20T23:35:51.830Z,13.32
2022-10-20T23:38:37.609Z,12.43
2022-10-20T23:41:23.186Z,11.52
2022-10-20T23:44:08.609Z,12.40
2022-10-20T23:46:53.913Z,13.02
2022-10-20T23:49:39.573Z,11.02
2022-10-20T23:52:25.171Z,11.23
2022-10-20T23:55:13.266Z,11.95
2022-10-20T23:58:01.238Z,11.43
